sensor_id;sensor_type;location;lat;lon;timestamp;temperature;humidity
10572;DHT22;5334;48.928;12.704;2023-10-09T00:00:15;12.90;99.90
10572;DHT22;5334;48.928;12.704;2023-10-09T00:02:59;12.90;99.90
10572;DHT22;5334;48.928;12.704;2023-10-09T00:05:27;12.90;99.90
10572;DHT22;5334;48.928;12.704;2023-10-09T00:08:14;12.80;99.90
10572;DHT22;5334;48.928;12.704;2023-10-09T00:10:45;12.80;99.90
10572;DHT22;5334;48.928;12.704;2023-10-09T00:13:26;12.80;99.90
10572;DHT22;5334;48.928;12.704;2023-10-09T00:16:15;12.80;99.90
10572;DHT22;5334;48.928;12.704;2023-10-09T00:18:42;12.90;99.90
10572;DHT22;5334;48.928;12.704;2023-10-09T00:21:18;12.80;99.90
10572;DHT22;5334;48.928;12.704;2023-10-09T00:23:47;12.70;99.90
10572;DHT22;5334;48.928;12.704;2023-10-09T00:26:25;12.70;99.90
10572;DHT22;5334;48.928;12.704;2023-10-09T00:28:50;12.70;99.90
10572;DHT22;5334;48.928;12.704;2023-10-09T00:31:20;12.70;99.90
10572;DHT22;5334;48.928;12.704;2023-10-09T00:34:01;12.80;99.90
10572;DHT22;5334;48.928;12.704;2023-10-09T00:36:30;12.70;99.90
10572;DHT22;5334;48.928;12.704;2023-10-09T00:38:58;12.70;99.90
10572;DHT22;5334;48.928;12.704;2023-10-09T00:41:27;12.70;99.90
10572;DHT22;5334;48.928;12.704;2023-10-09T00:43:54;12.70;99.90
10572;DHT22;5334;48.928;12.704;2023-10-09T00:46:25;12.70;99.90
10572;DHT22;5334;48.928;12.704;2023-10-09T00:48:55;12.70;99.90
10572;DHT22;5334;48.928;12.704;2023-10-09T00:51:22;12.70;99.90
10572;DHT22;5334;48.928;12.704;2023-10-09T00:53:54;12.70;99.90
10572;DHT22;5334;48.928;12.704;2023-10-09T00:56:23;12.70;99.90
10572;DHT22;5334;48.928;12.704;2023-10-09T00:58:53;12.70;99.90
10572;DHT22;5334;48.928;12.704;2023-10-09T01:01:27;12.70;99.90
10572;DHT22;5334;48.928;12.704;2023-10-09T01:04:04;12.80;99.90
10572;DHT22;5334;48.928;12.704;2023-10-09T01:06:41;12.80;99.90
10572;DHT22;5334;48.928;12.704;2023-10-09T01:09:14;12.90;99.90
10572;DHT22;5334;48.928;12.704;2023-10-09T01:11:43;12.90;99.90
10572;DHT22;5334;48.928;12.704;2023-10-09T01:14:35;12.90;99.90
10572;DHT22;5334;48.928;12.704;2023-10-09T01:17:03;12.90;99.90
10572;DHT22;5334;48.928;12.704;2023-10-09T01:19:33;12.90;99.90
10572;DHT22;5334;48.928;12.704;2023-10-09T01:21:59;12.90;99.90
10572;DHT22;5334;48.928;12.704;2023-10-09T01:24:42;12.90;99.90
10572;DHT22;5334;48.928;12.704;2023-10-09T01:27:09;12.90;99.90
10572;DHT22;5334;48.928;12.704;2023-10-09T01:29:41;12.80;99.90
10572;DHT22;5334;48.928;12.704;2023-10-09T01:34:46;12.80;99.90
10572;DHT22;5334;48.928;12.704;2023-10-09T01:37:19;12.80;99.90
10572;DHT22;5334;48.928;12.704;2023-10-09T01:39:52;12.80;99.90
10572;DHT22;5334;48.928;12.704;2023-10-09T01:42:19;12.80;99.90
10572;DHT22;5334;48.928;12.704;2023-10-09T01:44:51;12.80;99.90
10572;DHT22;5334;48.928;12.704;2023-10-09T01:47:17;12.80;99.90
10572;DHT22;5334;48.928;12.704;2023-10-09T01:49:47;12.80;99.90
10572;DHT22;5334;48.928;12.704;2023-10-09T01:52:19;12.80;99.90
10572;DHT22;5334;48.928;12.704;2023-10-09T01:54:47;12.80;99.90
10572;DHT22;5334;48.928;12.704;2023-10-09T01:57:17;12.80;99.90
10572;DHT22;5334;48.928;12.704;2023-10-09T01:59:50;12.80;99.90
10572;DHT22;5334;48.928;12.704;2023-10-09T02:02:19;12.80;99.90
10572;DHT22;5334;48.928;12.704;2023-10-09T02:04:53;12.80;99.90
10572;DHT22;5334;48.928;12.704;2023-10-09T02:07:20;12.80;99.90
10572;DHT22;5334;48.928;12.704;2023-10-09T02:09:57;12.90;99.90
10572;DHT22;5334;48.928;12.704;2023-10-09T02:12:23;12.70;99.90
10572;DHT22;5334;48.928;12.704;2023-10-09T02:14:50;12.80;99.90
10572;DHT22;5334;48.928;12.704;2023-10-09T02:17:19;12.70;99.90
10572;DHT22;5334;48.928;12.704;2023-10-09T02:19:54;12.70;99.90
10572;DHT22;5334;48.928;12.704;2023-10-09T02:22:19;12.70;99.90
10572;DHT22;5334;48.928;12.704;2023-10-09T02:24:45;12.70;99.90
10572;DHT22;5334;48.928;12.704;2023-10-09T02:27:18;12.70;99.90
10572;DHT22;5334;48.928;12.704;2023-10-09T02:30:03;12.70;99.90
10572;DHT22;5334;48.928;12.704;2023-10-09T02:32:41;12.70;99.90
10572;DHT22;5334;48.928;12.704;2023-10-09T02:35:09;12.70;99.90
10572;DHT22;5334;48.928;12.704;2023-10-09T02:37:44;12.70;99.90
10572;DHT22;5334;48.928;12.704;2023-10-09T02:40:12;12.70;99.90
10572;DHT22;5334;48.928;12.704;2023-10-09T02:42:47;12.70;99.90
10572;DHT22;5334;48.928;12.704;2023-10-09T02:45:15;12.70;99.90
10572;DHT22;5334;48.928;12.704;2023-10-09T02:47:43;12.60;99.90
10572;DHT22;5334;48.928;12.704;2023-10-09T02:50:14;12.60;99.90
10572;DHT22;5334;48.928;12.704;2023-10-09T02:52:48;12.60;99.90
10572;DHT22;5334;48.928;12.704;2023-10-09T02:55:19;12.60;99.90
10572;DHT22;5334;48.928;12.704;2023-10-09T02:57:53;12.60;99.90
10572;DHT22;5334;48.928;12.704;2023-10-09T03:00:31;12.70;99.90
10572;DHT22;5334;48.928;12.704;2023-10-09T03:02:58;12.60;99.90
10572;DHT22;5334;48.928;12.704;2023-10-09T03:05:24;12.60;99.90
10572;DHT22;5334;48.928;12.704;2023-10-09T03:07:54;12.60;99.90
10572;DHT22;5334;48.928;12.704;2023-10-09T03:10:22;13.60;99.90
10572;DHT22;5334;48.928;12.704;2023-10-09T03:12:48;12.70;99.90
10572;DHT22;5334;48.928;12.704;2023-10-09T03:15:22;12.70;99.90
10572;DHT22;5334;48.928;12.704;2023-10-09T03:17:48;12.70;99.90
10572;DHT22;5334;48.928;12.704;2023-10-09T03:20:15;12.80;99.90
10572;DHT22;5334;48.928;12.704;2023-10-09T03:22:44;12.80;99.90
10572;DHT22;5334;48.928;12.704;2023-10-09T03:25:11;12.80;99.90
10572;DHT22;5334;48.928;12.704;2023-10-09T03:27:40;12.80;99.90
10572;DHT22;5334;48.928;12.704;2023-10-09T03:32:44;12.90;99.90
10572;DHT22;5334;48.928;12.704;2023-10-09T03:35:12;12.90;99.90
10572;DHT22;5334;48.928;12.704;2023-10-09T03:37:42;13.00;99.90
10572;DHT22;5334;48.928;12.704;2023-10-09T03:40:09;13.00;99.90
10572;DHT22;5334;48.928;12.704;2023-10-09T03:42:42;13.00;99.90
10572;DHT22;5334;48.928;12.704;2023-10-09T03:45:08;13.00;99.90
10572;DHT22;5334;48.928;12.704;2023-10-09T03:47:44;13.00;99.90
10572;DHT22;5334;48.928;12.704;2023-10-09T03:50:09;13.00;99.90
10572;DHT22;5334;48.928;12.704;2023-10-09T03:52:52;13.00;99.90
10572;DHT22;5334;48.928;12.704;2023-10-09T03:55:20;13.00;99.90
10572;DHT22;5334;48.928;12.704;2023-10-09T03:57:53;13.00;99.90
10572;DHT22;5334;48.928;12.704;2023-10-09T04:00:19;13.10;99.90
10572;DHT22;5334;48.928;12.704;2023-10-09T04:02:56;13.00;99.90
10572;DHT22;5334;48.928;12.704;2023-10-09T04:05:24;13.10;99.90
10572;DHT22;5334;48.928;12.704;2023-10-09T04:07:50;13.10;99.90
10572;DHT22;5334;48.928;12.704;2023-10-09T04:10:19;13.10;99.90
10572;DHT22;5334;48.928;12.704;2023-10-09T04:13:03;13.10;99.90
10572;DHT22;5334;48.928;12.704;2023-10-09T04:15:29;13.00;99.90
10572;DHT22;5334;48.928;12.704;2023-10-09T04:17:56;13.00;99.90
10572;DHT22;5334;48.928;12.704;2023-10-09T04:20:22;13.00;99.90
10572;DHT22;5334;48.928;12.704;2023-10-09T04:22:48;13.00;99.90
10572;DHT22;5334;48.928;12.704;2023-10-09T04:25:20;13.00;99.90
10572;DHT22;5334;48.928;12.704;2023-10-09T04:27:55;13.00;99.90
10572;DHT22;5334;48.928;12.704;2023-10-09T04:30:44;13.00;99.90
10572;DHT22;5334;48.928;12.704;2023-10-09T04:33:15;12.90;99.90
10572;DHT22;5334;48.928;12.704;2023-10-09T04:36:03;12.90;99.90
10572;DHT22;5334;48.928;12.704;2023-10-09T04:38:44;13.00;99.90
10572;DHT22;5334;48.928;12.704;2023-10-09T04:41:22;13.00;99.90
10572;DHT22;5334;48.928;12.704;2023-10-09T04:43:56;13.00;99.90
10572;DHT22;5334;48.928;12.704;2023-10-09T04:46:40;12.90;99.90
10572;DHT22;5334;48.928;12.704;2023-10-09T04:49:36;12.90;99.90
10572;DHT22;5334;48.928;12.704;2023-10-09T04:52:17;12.80;99.90
10572;DHT22;5334;48.928;12.704;2023-10-09T04:54:55;12.80;99.90
10572;DHT22;5334;48.928;12.704;2023-10-09T04:57:39;12.80;99.90
10572;DHT22;5334;48.928;12.704;2023-10-09T05:00:25;12.80;99.90
10572;DHT22;5334;48.928;12.704;2023-10-09T05:02:54;12.80;99.90
10572;DHT22;5334;48.928;12.704;2023-10-09T05:05:26;12.80;99.90
10572;DHT22;5334;48.928;12.704;2023-10-09T05:08:14;12.70;99.90
10572;DHT22;5334;48.928;12.704;2023-10-09T05:10:54;12.70;99.90
10572;DHT22;5334;48.928;12.704;2023-10-09T05:13:33;12.70;99.90
10572;DHT22;5334;48.928;12.704;2023-10-09T05:16:15;12.70;99.90
10572;DHT22;5334;48.928;12.704;2023-10-09T05:18:48;12.70;99.90
10572;DHT22;5334;48.928;12.704;2023-10-09T05:21:38;12.60;99.90
10572;DHT22;5334;48.928;12.704;2023-10-09T05:24:08;12.60;99.90
10572;DHT22;5334;48.928;12.704;2023-10-09T05:26:47;12.60;99.90
10572;DHT22;5334;48.928;12.704;2023-10-09T05:29:14;12.60;99.90
10572;DHT22;5334;48.928;12.704;2023-10-09T05:31:50;12.60;99.90
10572;DHT22;5334;48.928;12.704;2023-10-09T05:34:35;12.50;99.90
10572;DHT22;5334;48.928;12.704;2023-10-09T05:37:20;12.50;99.90
10572;DHT22;5334;48.928;12.704;2023-10-09T05:39:59;12.50;99.90
10572;DHT22;5334;48.928;12.704;2023-10-09T05:42:32;12.50;99.90
10572;DHT22;5334;48.928;12.704;2023-10-09T05:47:51;12.60;99.90
10572;DHT22;5334;48.928;12.704;2023-10-09T05:50:24;12.60;99.90
10572;DHT22;5334;48.928;12.704;2023-10-09T05:52:53;12.60;99.90
10572;DHT22;5334;48.928;12.704;2023-10-09T05:55:20;12.60;99.90
10572;DHT22;5334;48.928;12.704;2023-10-09T05:57:56;12.60;99.90
10572;DHT22;5334;48.928;12.704;2023-10-09T06:00:23;12.60;99.90
10572;DHT22;5334;48.928;12.704;2023-10-09T06:03:07;12.70;99.90
10572;DHT22;5334;48.928;12.704;2023-10-09T06:05:55;12.80;99.90
10572;DHT22;5334;48.928;12.704;2023-10-09T06:08:25;12.90;99.90
10572;DHT22;5334;48.928;12.704;2023-10-09T06:11:14;12.90;99.90
10572;DHT22;5334;48.928;12.704;2023-10-09T06:14:00;13.00;99.90
10572;DHT22;5334;48.928;12.704;2023-10-09T06:16:36;13.20;99.90
10572;DHT22;5334;48.928;12.704;2023-10-09T06:19:10;13.30;99.90
10572;DHT22;5334;48.928;12.704;2023-10-09T06:21:56;13.40;99.90
10572;DHT22;5334;48.928;12.704;2023-10-09T06:24:37;13.50;99.90
10572;DHT22;5334;48.928;12.704;2023-10-09T06:27:18;13.60;99.90
10572;DHT22;5334;48.928;12.704;2023-10-09T06:29:57;13.60;99.90
10572;DHT22;5334;48.928;12.704;2023-10-09T06:32:42;13.70;99.90
10572;DHT22;5334;48.928;12.704;2023-10-09T06:35:24;13.80;99.90
10572;DHT22;5334;48.928;12.704;2023-10-09T06:38:12;13.90;99.90
10572;DHT22;5334;48.928;12.704;2023-10-09T06:40:51;13.80;99.90
10572;DHT22;5334;48.928;12.704;2023-10-09T06:43:17;13.70;99.90
10572;DHT22;5334;48.928;12.704;2023-10-09T06:45:58;13.70;99.90
10572;DHT22;5334;48.928;12.704;2023-10-09T06:48:24;13.70;99.90
10572;DHT22;5334;48.928;12.704;2023-10-09T06:51:08;13.70;99.90
10572;DHT22;5334;48.928;12.704;2023-10-09T06:53:53;13.90;99.90
10572;DHT22;5334;48.928;12.704;2023-10-09T06:56:23;14.20;99.90
10572;DHT22;5334;48.928;12.704;2023-10-09T06:59:05;14.30;99.90
10572;DHT22;5334;48.928;12.704;2023-10-09T07:01:43;14.40;99.90
10572;DHT22;5334;48.928;12.704;2023-10-09T07:04:10;14.50;99.90
10572;DHT22;5334;48.928;12.704;2023-10-09T07:06:47;14.70;99.90
10572;DHT22;5334;48.928;12.704;2023-10-09T07:09:13;15.10;99.90
10572;DHT22;5334;48.928;12.704;2023-10-09T07:11:43;15.40;99.90
10572;DHT22;5334;48.928;12.704;2023-10-09T07:14:14;15.60;99.90
10572;DHT22;5334;48.928;12.704;2023-10-09T07:17:02;16.00;99.90
10572;DHT22;5334;48.928;12.704;2023-10-09T07:19:43;16.30;99.90
10572;DHT22;5334;48.928;12.704;2023-10-09T07:22:10;16.60;99.90
10572;DHT22;5334;48.928;12.704;2023-10-09T07:24:53;16.90;99.90
10572;DHT22;5334;48.928;12.704;2023-10-09T07:30:07;16.70;99.90
10572;DHT22;5334;48.928;12.704;2023-10-09T07:32:56;16.60;99.90
10572;DHT22;5334;48.928;12.704;2023-10-09T07:35:34;16.50;99.90
10572;DHT22;5334;48.928;12.704;2023-10-09T07:38:19;16.50;99.90
10572;DHT22;5334;48.928;12.704;2023-10-09T07:40:47;16.50;99.90
10572;DHT22;5334;48.928;12.704;2023-10-09T07:43:26;16.50;99.90
10572;DHT22;5334;48.928;12.704;2023-10-09T07:45:55;16.40;99.90
10572;DHT22;5334;48.928;12.704;2023-10-09T07:48:24;16.40;99.90
10572;DHT22;5334;48.928;12.704;2023-10-09T07:51:11;16.40;99.90
10572;DHT22;5334;48.928;12.704;2023-10-09T07:53:37;16.30;99.90
10572;DHT22;5334;48.928;12.704;2023-10-09T07:56:12;16.20;99.90
10572;DHT22;5334;48.928;12.704;2023-10-09T07:58:46;16.20;99.90
10572;DHT22;5334;48.928;12.704;2023-10-09T08:01:14;16.20;99.90
10572;DHT22;5334;48.928;12.704;2023-10-09T08:04:00;16.20;99.90
10572;DHT22;5334;48.928;12.704;2023-10-09T08:06:38;16.20;99.90
10572;DHT22;5334;48.928;12.704;2023-10-09T08:09:08;16.20;99.90
10572;DHT22;5334;48.928;12.704;2023-10-09T08:11:41;16.10;99.90
10572;DHT22;5334;48.928;12.704;2023-10-09T08:14:42;16.10;99.90
10572;DHT22;5334;48.928;12.704;2023-10-09T08:17:14;16.30;99.90
10572;DHT22;5334;48.928;12.704;2023-10-09T08:20:02;16.40;99.90
10572;DHT22;5334;48.928;12.704;2023-10-09T08:22:37;16.60;99.90
10572;DHT22;5334;48.928;12.704;2023-10-09T08:25:12;16.70;99.90
10572;DHT22;5334;48.928;12.704;2023-10-09T08:28:00;16.60;99.90
10572;DHT22;5334;48.928;12.704;2023-10-09T08:30:47;16.60;99.90
10572;DHT22;5334;48.928;12.704;2023-10-09T08:33:19;16.60;99.90
10572;DHT22;5334;48.928;12.704;2023-10-09T08:35:51;16.50;99.90
10572;DHT22;5334;48.928;12.704;2023-10-09T08:38:20;16.60;99.90
10572;DHT22;5334;48.928;12.704;2023-10-09T08:40:50;16.60;99.90
10572;DHT22;5334;48.928;12.704;2023-10-09T08:43:21;16.80;99.90
10572;DHT22;5334;48.928;12.704;2023-10-09T08:45:57;16.80;99.90
10572;DHT22;5334;48.928;12.704;2023-10-09T08:48:29;16.70;99.90
10572;DHT22;5334;48.928;12.704;2023-10-09T08:50:56;16.80;99.90
10572;DHT22;5334;48.928;12.704;2023-10-09T08:53:23;16.90;99.90
10572;DHT22;5334;48.928;12.704;2023-10-09T08:55:50;17.30;99.90
10572;DHT22;5334;48.928;12.704;2023-10-09T08:58:17;17.50;99.90
10572;DHT22;5334;48.928;12.704;2023-10-09T09:00:56;17.70;99.90
10572;DHT22;5334;48.928;12.704;2023-10-09T09:03:24;17.80;99.90
10572;DHT22;5334;48.928;12.704;2023-10-09T09:06:01;17.80;99.90
10572;DHT22;5334;48.928;12.704;2023-10-09T09:08:29;17.60;99.90
10572;DHT22;5334;48.928;12.704;2023-10-09T09:11:12;17.50;99.90
10572;DHT22;5334;48.928;12.704;2023-10-09T09:13:45;17.30;99.90
10572;DHT22;5334;48.928;12.704;2023-10-09T09:16:19;17.30;99.90
10572;DHT22;5334;48.928;12.704;2023-10-09T09:19:01;17.50;99.90
10572;DHT22;5334;48.928;12.704;2023-10-09T09:21:37;17.70;99.90
10572;DHT22;5334;48.928;12.704;2023-10-09T09:24:13;17.80;99.90
10572;DHT22;5334;48.928;12.704;2023-10-09T09:26:52;18.20;99.90
10572;DHT22;5334;48.928;12.704;2023-10-09T09:29:44;18.30;99.90
10572;DHT22;5334;48.928;12.704;2023-10-09T09:32:29;18.30;99.90
10572;DHT22;5334;48.928;12.704;2023-10-09T09:35:02;18.10;99.90
10572;DHT22;5334;48.928;12.704;2023-10-09T09:37:34;18.00;99.90
10572;DHT22;5334;48.928;12.704;2023-10-09T09:40:09;17.90;99.90
10572;DHT22;5334;48.928;12.704;2023-10-09T09:42:57;18.00;99.90
10572;DHT22;5334;48.928;12.704;2023-10-09T09:45:37;18.00;99.90
10572;DHT22;5334;48.928;12.704;2023-10-09T09:48:06;18.00;99.90
10572;DHT22;5334;48.928;12.704;2023-10-09T09:50:35;18.00;99.90
10572;DHT22;5334;48.928;12.704;2023-10-09T09:53:14;18.10;99.90
10572;DHT22;5334;48.928;12.704;2023-10-09T09:55:46;18.10;99.90
10572;DHT22;5334;48.928;12.704;2023-10-09T09:58:18;18.10;99.90
10572;DHT22;5334;48.928;12.704;2023-10-09T10:00:50;17.90;99.90
10572;DHT22;5334;48.928;12.704;2023-10-09T10:03:22;17.90;99.90
10572;DHT22;5334;48.928;12.704;2023-10-09T10:05:50;17.90;99.90
10572;DHT22;5334;48.928;12.704;2023-10-09T10:08:18;17.70;99.90
10572;DHT22;5334;48.928;12.704;2023-10-09T10:10:46;17.60;99.90
10572;DHT22;5334;48.928;12.704;2023-10-09T10:16:13;18.10;99.90
10572;DHT22;5334;48.928;12.704;2023-10-09T10:19:04;18.30;99.90
10572;DHT22;5334;48.928;12.704;2023-10-09T10:21:47;18.40;99.90
10572;DHT22;5334;48.928;12.704;2023-10-09T10:35:20;18.20;99.90
10572;DHT22;5334;48.928;12.704;2023-10-09T10:37:58;18.20;99.90
10572;DHT22;5334;48.928;12.704;2023-10-09T10:40:40;18.00;99.90
10572;DHT22;5334;48.928;12.704;2023-10-09T10:43:18;18.00;99.90
10572;DHT22;5334;48.928;12.704;2023-10-09T10:48:34;17.90;99.90
10572;DHT22;5334;48.928;12.704;2023-10-09T10:51:06;17.80;99.90
10572;DHT22;5334;48.928;12.704;2023-10-09T10:53:37;17.80;99.90
10572;DHT22;5334;48.928;12.704;2023-10-09T10:56:14;17.70;99.90
10572;DHT22;5334;48.928;12.704;2023-10-09T10:58:41;17.70;99.90
10572;DHT22;5334;48.928;12.704;2023-10-09T11:01:42;17.60;99.90
10572;DHT22;5334;48.928;12.704;2023-10-09T11:04:24;17.50;99.90
10572;DHT22;5334;48.928;12.704;2023-10-09T11:06:57;17.60;99.90
10572;DHT22;5334;48.928;12.704;2023-10-09T11:09:43;17.50;99.90
10572;DHT22;5334;48.928;12.704;2023-10-09T11:12:25;17.40;99.90
10572;DHT22;5334;48.928;12.704;2023-10-09T11:15:04;17.30;99.90
10572;DHT22;5334;48.928;12.704;2023-10-09T11:17:37;17.30;99.90
10572;DHT22;5334;48.928;12.704;2023-10-09T11:20:05;17.20;99.90
10572;DHT22;5334;48.928;12.704;2023-10-09T11:22:52;17.10;99.90
10572;DHT22;5334;48.928;12.704;2023-10-09T11:25:40;17.10;99.90
10572;DHT22;5334;48.928;12.704;2023-10-09T11:28:20;17.20;99.90
10572;DHT22;5334;48.928;12.704;2023-10-09T11:31:11;17.30;99.90
10572;DHT22;5334;48.928;12.704;2023-10-09T11:33:47;17.30;99.90
10572;DHT22;5334;48.928;12.704;2023-10-09T11:36:17;17.20;99.90
10572;DHT22;5334;48.928;12.704;2023-10-09T11:38:47;17.20;99.90
10572;DHT22;5334;48.928;12.704;2023-10-09T11:41:15;17.20;99.90
10572;DHT22;5334;48.928;12.704;2023-10-09T11:43:53;17.30;99.90
10572;DHT22;5334;48.928;12.704;2023-10-09T11:46:21;17.40;99.90
10572;DHT22;5334;48.928;12.704;2023-10-09T11:49:06;17.40;99.90
10572;DHT22;5334;48.928;12.704;2023-10-09T11:51:44;17.40;99.90
10572;DHT22;5334;48.928;12.704;2023-10-09T11:54:34;17.30;99.90
10572;DHT22;5334;48.928;12.704;2023-10-09T11:57:00;17.20;99.90
10572;DHT22;5334;48.928;12.704;2023-10-09T11:59:29;17.20;99.90
10572;DHT22;5334;48.928;12.704;2023-10-09T12:02:07;17.20;99.90
10572;DHT22;5334;48.928;12.704;2023-10-09T12:04:41;17.20;99.90
10572;DHT22;5334;48.928;12.704;2023-10-09T12:07:10;17.20;99.90
10572;DHT22;5334;48.928;12.704;2023-10-09T12:09:37;17.20;99.90
10572;DHT22;5334;48.928;12.704;2023-10-09T12:12:07;17.10;99.90
10572;DHT22;5334;48.928;12.704;2023-10-09T12:14:34;17.10;99.90
10572;DHT22;5334;48.928;12.704;2023-10-09T12:17:07;17.10;99.90
10572;DHT22;5334;48.928;12.704;2023-10-09T12:19:38;16.90;99.90
10572;DHT22;5334;48.928;12.704;2023-10-09T12:22:06;16.80;99.90
10572;DHT22;5334;48.928;12.704;2023-10-09T12:24:35;16.70;99.90
10572;DHT22;5334;48.928;12.704;2023-10-09T12:27:01;16.60;99.90
10572;DHT22;5334;48.928;12.704;2023-10-09T12:29:26;16.60;99.90
10572;DHT22;5334;48.928;12.704;2023-10-09T12:31:56;16.60;99.90
10572;DHT22;5334;48.928;12.704;2023-10-09T12:34:25;16.60;99.90
10572;DHT22;5334;48.928;12.704;2023-10-09T12:36:56;16.50;99.90
10572;DHT22;5334;48.928;12.704;2023-10-09T12:39:22;16.60;99.90
10572;DHT22;5334;48.928;12.704;2023-10-09T12:41:48;16.60;99.90
10572;DHT22;5334;48.928;12.704;2023-10-09T12:44:14;16.80;99.90
10572;DHT22;5334;48.928;12.704;2023-10-09T12:46:43;16.80;99.90
10572;DHT22;5334;48.928;12.704;2023-10-09T12:49:22;16.90;99.90
10572;DHT22;5334;48.928;12.704;2023-10-09T12:51:52;16.90;99.90
10572;DHT22;5334;48.928;12.704;2023-10-09T12:54:18;16.90;99.90
10572;DHT22;5334;48.928;12.704;2023-10-09T12:56:46;16.90;99.90
10572;DHT22;5334;48.928;12.704;2023-10-09T12:59:14;16.90;99.90
10572;DHT22;5334;48.928;12.704;2023-10-09T13:01:43;16.90;99.90
10572;DHT22;5334;48.928;12.704;2023-10-09T13:04:13;16.90;99.90
10572;DHT22;5334;48.928;12.704;2023-10-09T13:06:45;16.80;99.90
10572;DHT22;5334;48.928;12.704;2023-10-09T13:09:15;16.80;99.90
10572;DHT22;5334;48.928;12.704;2023-10-09T13:11:42;16.90;99.90
10572;DHT22;5334;48.928;12.704;2023-10-09T13:14:09;16.90;99.90
10572;DHT22;5334;48.928;12.704;2023-10-09T13:16:53;16.80;99.90
10572;DHT22;5334;48.928;12.704;2023-10-09T13:19:19;16.80;99.90
10572;DHT22;5334;48.928;12.704;2023-10-09T13:21:45;16.80;99.90
10572;DHT22;5334;48.928;12.704;2023-10-09T13:24:12;16.80;99.90
10572;DHT22;5334;48.928;12.704;2023-10-09T13:26:49;16.80;99.90
10572;DHT22;5334;48.928;12.704;2023-10-09T13:29:17;16.70;99.90
10572;DHT22;5334;48.928;12.704;2023-10-09T13:31:48;16.70;99.90
10572;DHT22;5334;48.928;12.704;2023-10-09T13:34:16;16.70;99.90
10572;DHT22;5334;48.928;12.704;2023-10-09T13:36:42;16.60;99.90
10572;DHT22;5334;48.928;12.704;2023-10-09T13:39:28;16.50;99.90
10572;DHT22;5334;48.928;12.704;2023-10-09T13:41:58;16.50;99.90
10572;DHT22;5334;48.928;12.704;2023-10-09T13:44:27;16.30;99.90
10572;DHT22;5334;48.928;12.704;2023-10-09T13:47:00;16.30;99.90
10572;DHT22;5334;48.928;12.704;2023-10-09T13:49:27;16.30;99.90
10572;DHT22;5334;48.928;12.704;2023-10-09T13:51:56;16.20;99.90
10572;DHT22;5334;48.928;12.704;2023-10-09T13:54:23;16.20;99.90
10572;DHT22;5334;48.928;12.704;2023-10-09T13:57:04;16.20;99.90
10572;DHT22;5334;48.928;12.704;2023-10-09T13:59:31;16.20;99.90
10572;DHT22;5334;48.928;12.704;2023-10-09T14:01:57;16.20;99.90
10572;DHT22;5334;48.928;12.704;2023-10-09T14:04:25;16.10;99.90
10572;DHT22;5334;48.928;12.704;2023-10-09T14:06:54;16.00;99.90
10572;DHT22;5334;48.928;12.704;2023-10-09T14:09:23;15.90;99.90
10572;DHT22;5334;48.928;12.704;2023-10-09T14:12:05;15.90;99.90
10572;DHT22;5334;48.928;12.704;2023-10-09T14:14:43;15.90;99.90
10572;DHT22;5334;48.928;12.704;2023-10-09T14:17:22;15.90;99.90
10572;DHT22;5334;48.928;12.704;2023-10-09T14:19:55;15.90;99.90
10572;DHT22;5334;48.928;12.704;2023-10-09T14:22:23;15.90;99.90
10572;DHT22;5334;48.928;12.704;2023-10-09T14:24:53;15.90;99.90
10572;DHT22;5334;48.928;12.704;2023-10-09T14:27:24;15.90;99.90
10572;DHT22;5334;48.928;12.704;2023-10-09T14:29:56;15.90;99.90
10572;DHT22;5334;48.928;12.704;2023-10-09T14:32:24;16.00;99.90
10572;DHT22;5334;48.928;12.704;2023-10-09T14:34:55;16.00;99.90
10572;DHT22;5334;48.928;12.704;2023-10-09T14:37:26;16.00;99.90
10572;DHT22;5334;48.928;12.704;2023-10-09T14:39:52;16.00;99.90
10572;DHT22;5334;48.928;12.704;2023-10-09T14:42:18;16.00;99.90
10572;DHT22;5334;48.928;12.704;2023-10-09T14:44:46;16.00;99.90
10572;DHT22;5334;48.928;12.704;2023-10-09T14:47:12;16.00;99.90
10572;DHT22;5334;48.928;12.704;2023-10-09T14:49:40;16.00;99.90
10572;DHT22;5334;48.928;12.704;2023-10-09T14:52:15;16.00;99.90
10572;DHT22;5334;48.928;12.704;2023-10-09T14:54:46;16.00;99.90
10572;DHT22;5334;48.928;12.704;2023-10-09T14:57:12;16.00;99.90
10572;DHT22;5334;48.928;12.704;2023-10-09T14:59:39;16.00;99.90
10572;DHT22;5334;48.928;12.704;2023-10-09T15:02:05;16.00;99.90
10572;DHT22;5334;48.928;12.704;2023-10-09T15:04:31;16.00;99.90
10572;DHT22;5334;48.928;12.704;2023-10-09T15:07:01;16.00;99.90
10572;DHT22;5334;48.928;12.704;2023-10-09T15:09:27;16.10;99.90
10572;DHT22;5334;48.928;12.704;2023-10-09T15:11:56;16.10;99.90
10572;DHT22;5334;48.928;12.704;2023-10-09T15:14:23;16.10;99.90
10572;DHT22;5334;48.928;12.704;2023-10-09T15:16:49;16.10;99.90
10572;DHT22;5334;48.928;12.704;2023-10-09T15:19:16;16.10;99.90
10572;DHT22;5334;48.928;12.704;2023-10-09T15:21:45;16.10;99.90
10572;DHT22;5334;48.928;12.704;2023-10-09T15:24:15;16.10;99.90
10572;DHT22;5334;48.928;12.704;2023-10-09T15:26:42;16.10;99.90
10572;DHT22;5334;48.928;12.704;2023-10-09T15:29:08;16.20;99.90
10572;DHT22;5334;48.928;12.704;2023-10-09T15:31:36;16.10;99.90
10572;DHT22;5334;48.928;12.704;2023-10-09T15:34:02;16.10;99.90
10572;DHT22;5334;48.928;12.704;2023-10-09T15:36:28;16.10;99.90
10572;DHT22;5334;48.928;12.704;2023-10-09T15:38:56;16.10;99.90
10572;DHT22;5334;48.928;12.704;2023-10-09T15:41:29;16.10;99.90
10572;DHT22;5334;48.928;12.704;2023-10-09T15:43:58;16.10;99.90
10572;DHT22;5334;48.928;12.704;2023-10-09T15:46:24;16.20;99.90
10572;DHT22;5334;48.928;12.704;2023-10-09T15:48:51;16.20;99.90
10572;DHT22;5334;48.928;12.704;2023-10-09T15:51:19;16.20;99.90
10572;DHT22;5334;48.928;12.704;2023-10-09T15:53:46;16.10;99.90
10572;DHT22;5334;48.928;12.704;2023-10-09T15:56:13;16.10;99.90
10572;DHT22;5334;48.928;12.704;2023-10-09T15:58:40;16.10;99.90
10572;DHT22;5334;48.928;12.704;2023-10-09T16:01:12;16.10;99.90
10572;DHT22;5334;48.928;12.704;2023-10-09T16:03:44;16.10;99.90
10572;DHT22;5334;48.928;12.704;2023-10-09T16:06:13;16.10;99.90
10572;DHT22;5334;48.928;12.704;2023-10-09T16:08:42;16.10;99.90
10572;DHT22;5334;48.928;12.704;2023-10-09T16:11:09;16.10;99.90
10572;DHT22;5334;48.928;12.704;2023-10-09T16:13:36;16.10;99.90
10572;DHT22;5334;48.928;12.704;2023-10-09T16:16:04;16.10;99.90
10572;DHT22;5334;48.928;12.704;2023-10-09T16:18:36;16.10;99.90
10572;DHT22;5334;48.928;12.704;2023-10-09T16:21:04;16.10;99.90
10572;DHT22;5334;48.928;12.704;2023-10-09T16:23:33;16.10;99.90
10572;DHT22;5334;48.928;12.704;2023-10-09T16:25:59;16.10;99.90
10572;DHT22;5334;48.928;12.704;2023-10-09T16:30:54;16.00;99.90
10572;DHT22;5334;48.928;12.704;2023-10-09T16:33:21;15.90;99.90
10572;DHT22;5334;48.928;12.704;2023-10-09T16:35:49;15.90;99.90